Time;durP1;ratioP1;P1;durP2;ratioP2;P2;SDS_P1;SDS_P2;PMS_P1;PMS_P2;Temp;Humidity;BMP_temperature;BMP_pressure;BME280_temperature;BME280_humidity;BME280_pressure;Samples;Min_cycle;Max_cycle;Signal;HPM_P1;HPM_P2
2021/05/08 00:00:31;;;;;;;3.40;3.20;;;;;;;5.03;70.41;100690.06;5087124;28;20223;-79
2021/05/08 00:02:57;;;;;;;3.67;3.37;;;;;;;5.05;71.23;100692.66;5086301;28;20214;-78
2021/05/08 00:05:23;;;;;;;3.07;2.60;;;;;;;5.03;71.41;100694.38;5087048;28;20193;-79
2021/05/08 00:07:49;;;;;;;3.33;3.07;;;;;;;4.97;71.25;100695.19;5087102;28;20229;-79
2021/05/08 00:10:17;;;;;;;5.67;3.40;;;;;;;4.95;71.28;100691.72;5086528;28;20620;-79
2021/05/08 00:12:43;;;;;;;3.03;2.83;;;;;;;4.97;71.69;100690.00;5085708;28;20216;-79
2021/05/08 00:15:10;;;;;;;3.50;3.03;;;;;;;4.90;71.64;100698.59;5087228;28;20596;-79
2021/05/08 00:17:37;;;;;;;3.70;3.40;;;;;;;4.90;70.96;100694.28;5086449;28;20653;-79
2021/05/08 00:20:05;;;;;;;3.40;3.00;;;;;;;4.91;71.39;100692.56;5086519;28;20207;-79
2021/05/08 00:22:31;;;;;;;2.93;2.70;;;;;;;4.88;71.85;100688.22;5087248;28;20200;-79
2021/05/08 00:24:57;;;;;;;3.10;2.90;;;;;;;4.79;71.62;100695.91;5086394;28;20671;-79
2021/05/08 00:27:23;;;;;;;3.40;3.20;;;;;;;4.74;72.49;100695.88;5086529;28;20220;-78
2021/05/08 00:29:49;;;;;;;3.30;3.00;;;;;;;4.71;72.73;100701.00;5089530;28;20770;-80
2021/05/08 00:32:15;;;;;;;3.60;3.10;;;;;;;4.69;72.98;100694.09;5090712;28;20810;-79
2021/05/08 00:34:41;;;;;;;3.10;2.90;;;;;;;4.67;72.44;100709.59;5090748;28;20210;-80
2021/05/08 00:37:08;;;;;;;4.43;4.13;;;;;;;4.53;72.61;100704.28;5090810;28;20247;-79
2021/05/08 00:39:34;;;;;;;3.60;3.30;;;;;;;4.60;72.83;100707.81;5090035;28;20207;-79
2021/05/08 00:42:00;;;;;;;4.03;3.30;;;;;;;4.54;73.31;100702.59;5090971;28;20262;-79
2021/05/08 00:44:26;;;;;;;4.27;3.83;;;;;;;4.47;73.64;100706.81;5091366;28;20742;-79
2021/05/08 00:46:53;;;;;;;4.40;3.97;;;;;;;4.53;73.30;100699.09;5090475;28;20200;-79
2021/05/08 00:49:19;;;;;;;4.67;4.30;;;;;;;4.59;72.15;100695.72;5090124;28;20224;-79
2021/05/08 00:51:45;;;;;;;4.83;3.43;;;;;;;4.57;73.15;100700.00;5090375;28;20582;-79
2021/05/08 00:54:11;;;;;;;4.00;3.70;;;;;;;4.53;73.77;100699.09;5089516;28;20746;-79
2021/05/08 00:56:38;;;;;;;4.50;4.10;;;;;;;4.51;73.83;100697.38;5090656;28;20265;-79
2021/05/08 00:59:04;;;;;;;5.10;4.27;;;;;;;4.41;73.29;100699.00;5089579;28;20196;-79
2021/05/08 01:01:30;;;;;;;5.33;4.10;;;;;;;4.51;73.66;100699.94;5090038;28;20212;-79
2021/05/08 01:03:56;;;;;;;4.80;4.40;;;;;;;4.54;72.47;100697.41;5088443;28;20268;-78
2021/05/08 01:06:21;;;;;;;3.80;3.60;;;;;;;4.56;73.83;100700.88;5090224;28;21395;-77
2021/05/08 01:08:47;;;;;;;5.13;4.30;;;;;;;4.57;73.12;100695.69;5089020;28;20231;-79
2021/05/08 01:11:13;;;;;;;4.80;4.40;;;;;;;4.58;73.41;100697.44;5089761;28;20211;-79
2021/05/08 01:13:40;;;;;;;4.47;4.17;;;;;;;4.53;73.76;100699.09;5089290;28;20222;-79
2021/05/08 01:16:06;;;;;;;4.43;4.03;;;;;;;4.55;73.58;100691.38;5089426;28;20200;-79
2021/05/08 01:18:32;;;;;;;4.67;4.37;;;;;;;4.52;74.27;100697.38;5089532;28;20245;-79
2021/05/08 01:20:58;;;;;;;7.23;4.90;;;;;;;4.47;73.97;100695.59;5090060;28;20267;-79
2021/05/08 01:23:25;;;;;;;5.00;4.60;;;;;;;4.38;74.13;100692.06;5088944;28;20207;-79
2021/05/08 01:25:51;;;;;;;5.33;4.93;;;;;;;4.39;74.36;100692.94;5090243;28;20208;-78
2021/05/08 01:28:17;;;;;;;6.27;5.77;;;;;;;4.39;73.72;100700.69;5089210;28;20224;-79
2021/05/08 01:30:43;;;;;;;5.43;4.93;;;;;;;4.37;74.67;100697.22;5091388;28;20226;-79
2021/05/08 01:33:09;;;;;;;5.03;4.67;;;;;;;4.41;74.98;100705.88;5090028;28;20261;-79
2021/05/08 01:35:36;;;;;;;5.23;4.90;;;;;;;4.42;74.52;100705.00;5091064;28;20207;-80
2021/05/08 01:38:02;;;;;;;5.33;4.93;;;;;;;4.36;74.94;100703.22;5091148;28;20228;-79
2021/05/08 01:40:31;;;;;;;5.70;5.30;;;;;;;4.34;75.57;100710.09;5090709;28;20203;-79
2021/05/08 01:42:58;;;;;;;9.23;5.87;;;;;;;4.31;74.64;100705.78;5088821;28;20438;-79
2021/05/08 01:45:24;;;;;;;6.53;5.87;;;;;;;4.26;75.62;100707.47;5088055;28;20215;-79
2021/05/08 01:47:52;;;;;;;6.80;6.20;;;;;;;4.19;75.60;100703.06;5088754;28;20481;-79
2021/05/08 01:50:20;;;;;;;7.60;7.10;;;;;;;4.18;75.25;100704.78;5088523;28;20314;-78
2021/05/08 01:52:46;;;;;;;7.23;6.63;;;;;;;4.21;76.05;100708.25;5088522;28;20203;-80
2021/05/08 01:55:14;;;;;;;8.00;7.40;;;;;;;4.22;76.01;100707.38;5088167;28;20204;-79
2021/05/08 01:57:43;;;;;;;8.17;7.37;;;;;;;4.26;76.17;100709.16;5088269;28;20337;-79
2021/05/08 02:00:12;;;;;;;8.80;8.10;;;;;;;4.19;77.08;100710.81;5087948;28;20206;-78
2021/05/08 02:02:38;;;;;;;8.73;8.13;;;;;;;4.23;76.66;100709.13;5087926;28;20690;-80
2021/05/08 02:05:06;;;;;;;8.50;7.90;;;;;;;4.19;76.30;100710.81;5087904;28;20299;-80
2021/05/08 02:07:32;;;;;;;9.47;8.77;;;;;;;4.16;76.25;100703.00;5088144;28;20238;-79
2021/05/08 02:09:58;;;;;;;10.83;9.97;;;;;;;4.16;76.81;100708.19;5087980;28;20220;-78
2021/05/08 02:12:28;;;;;;;10.57;9.57;;;;;;;4.17;76.33;100702.19;5088543;28;20228;-79
2021/05/08 02:14:55;;;;;;;9.73;9.03;;;;;;;4.10;76.41;100708.13;5088151;28;20246;-79
2021/05/08 02:17:21;;;;;;;11.37;10.47;;;;;;;4.12;76.75;100711.56;5087583;28;20787;-79
2021/05/08 02:19:46;;;;;;;12.27;11.27;;;;;;;4.07;76.58;100706.38;5087772;28;20279;-79
2021/05/08 02:22:12;;;;;;;12.10;11.10;;;;;;;4.09;75.95;100704.66;5088810;28;20208;-80
2021/05/08 02:24:38;;;;;;;13.17;11.97;;;;;;;4.07;76.31;100705.50;5087715;28;20267;-80
2021/05/08 02:27:05;;;;;;;12.50;11.50;;;;;;;4.13;76.30;100713.31;5088802;28;20268;-79
2021/05/08 02:29:30;;;;;;;11.97;11.17;;;;;;;4.11;76.91;100710.72;5087925;28;20227;-79
2021/05/08 02:31:57;;;;;;;12.57;11.63;;;;;;;4.05;76.77;100710.66;5087090;28;20294;-78
2021/05/08 02:34:23;;;;;;;12.40;11.40;;;;;;;4.06;77.03;100703.75;5087758;28;20208;-79
2021/05/08 02:36:49;;;;;;;12.30;11.40;;;;;;;4.08;76.39;100705.50;5088711;28;20299;-79
2021/05/08 02:39:15;;;;;;;12.57;11.57;;;;;;;4.06;76.34;100699.44;5088413;28;20788;-79
2021/05/08 02:41:40;;;;;;;12.73;11.63;;;;;;;4.05;76.61;100702.03;5087958;28;20383;-79
2021/05/08 02:44:07;;;;;;;11.77;10.80;;;;;;;4.05;76.09;100700.31;5087196;28;20213;-79
2021/05/08 02:46:32;;;;;;;12.37;11.37;;;;;;;4.06;76.77;100703.75;5088063;28;20208;-79
2021/05/08 02:48:59;;;;;;;13.17;12.17;;;;;;;4.03;76.77;100709.75;5087519;28;20653;-79
2021/05/08 02:51:26;;;;;;;12.70;11.80;;;;;;;4.06;76.63;100706.34;5087400;28;20203;-79
2021/05/08 02:53:52;;;;;;;12.30;11.40;;;;;;;4.03;76.59;100706.31;5086235;28;20307;-77
2021/05/08 02:56:18;;;;;;;12.83;11.90;;;;;;;3.98;77.21;100698.50;5088001;28;20626;-78
2021/05/08 02:58:45;;;;;;;15.37;13.47;;;;;;;3.94;76.96;100702.78;5086411;28;20521;-78
2021/05/08 03:01:10;;;;;;;13.60;12.60;;;;;;;3.97;76.51;100714.84;5085711;28;20701;-79
2021/05/08 03:03:37;;;;;;;14.37;13.30;;;;;;;3.93;76.72;100703.63;5085368;28;20241;-78
2021/05/08 03:06:04;;;;;;;13.17;12.17;;;;;;;3.93;76.78;100706.19;5085882;28;20207;-78
2021/05/08 03:08:30;;;;;;;13.87;12.80;;;;;;;3.82;77.77;100701.75;5085340;28;20228;-79
2021/05/08 03:10:55;;;;;;;14.73;13.43;;;;;;;3.82;77.74;100704.31;5085540;28;20673;-78
2021/05/08 03:13:21;;;;;;;13.93;12.83;;;;;;;3.87;76.61;100711.28;5084874;28;20261;-79
2021/05/08 03:15:47;;;;;;;14.27;13.17;;;;;;;3.87;77.22;100700.97;5085350;28;20204;-78
2021/05/08 03:18:13;;;;;;;12.90;11.83;;;;;;;3.78;77.70;100700.84;5085456;28;20220;-78
2021/05/08 03:20:39;;;;;;;13.00;11.90;;;;;;;3.82;76.88;100702.59;5085078;28;20204;-79
2021/05/08 03:23:06;;;;;;;12.93;11.83;;;;;;;3.78;77.50;100695.66;5084891;28;20204;-79
2021/05/08 03:25:31;;;;;;;13.07;12.17;;;;;;;3.75;77.46;100701.66;5085383;28;20232;-78
2021/05/08 03:27:57;;;;;;;12.27;11.27;;;;;;;3.78;77.87;100693.94;5085225;28;20276;-79
2021/05/08 03:30:24;;;;;;;12.10;11.30;;;;;;;3.77;77.25;100705.13;5084464;28;20220;-78
2021/05/08 03:32:49;;;;;;;13.60;12.60;;;;;;;3.74;77.26;100702.50;5085373;28;20208;-79
2021/05/08 03:35:15;;;;;;;12.93;11.87;;;;;;;3.69;77.64;100691.28;5085356;28;20567;-80
2021/05/08 03:37:41;;;;;;;13.00;12.07;;;;;;;3.62;78.27;100702.34;5085338;28;20238;-79
2021/05/08 03:40:09;;;;;;;13.07;12.07;;;;;;;3.67;77.59;100698.13;5085189;28;20781;-79
2021/05/08 03:42:35;;;;;;;12.67;11.67;;;;;;;3.68;77.50;100693.81;5085491;28;20306;-78
2021/05/08 03:45:01;;;;;;;12.53;11.53;;;;;;;3.69;77.73;100695.56;5084943;28;20208;-79
2021/05/08 03:47:27;;;;;;;12.70;11.70;;;;;;;3.70;78.32;100692.97;5085417;28;20666;-78
2021/05/08 03:49:52;;;;;;;13.10;11.97;;;;;;;3.71;77.98;100696.47;5084327;28;20685;-78
2021/05/08 03:52:18;;;;;;;12.73;11.57;;;;;;;3.67;78.20;100698.13;5085670;28;21229;-78
2021/05/08 03:54:44;;;;;;;11.67;10.67;;;;;;;3.68;77.85;100698.97;5085662;28;20215;-78
2021/05/08 03:57:11;;;;;;;13.13;11.83;;;;;;;3.66;77.70;100700.69;5085188;28;20241;-78
2021/05/08 03:59:37;;;;;;;13.63;12.53;;;;;;;3.67;78.54;100707.59;5085639;28;20287;-79
2021/05/08 04:02:03;;;;;;;13.47;12.40;;;;;;;3.62;78.02;100706.66;5085092;28;20230;-79
2021/05/08 04:04:29;;;;;;;13.10;11.87;;;;;;;3.67;78.39;100705.00;5087895;28;20549;-79
2021/05/08 04:06:54;;;;;;;13.87;12.67;;;;;;;3.71;78.74;100704.19;5089514;28;20488;-79
2021/05/08 04:09:20;;;;;;;13.20;12.17;;;;;;;3.69;78.61;100706.75;5089492;28;20230;-79
2021/05/08 04:11:46;;;;;;;13.80;12.70;;;;;;;3.69;78.30;100701.59;5089449;28;20212;-81
2021/05/08 04:14:13;;;;;;;14.00;12.80;;;;;;;3.71;79.09;100705.06;5088424;28;20593;-79
2021/05/08 04:16:39;;;;;;;13.73;12.63;;;;;;;3.74;79.53;100710.25;5089842;28;20208;-79
2021/05/08 04:19:05;;;;;;;14.20;13.03;;;;;;;3.77;78.89;100707.72;5089435;28;20232;-79
2021/05/08 04:21:32;;;;;;;14.87;13.77;;;;;;;3.80;78.72;100704.31;5089711;28;20329;-79
2021/05/08 04:23:58;;;;;;;15.07;13.97;;;;;;;3.88;78.96;100706.97;5089721;28;20200;-79
2021/05/08 04:26:24;;;;;;;14.00;12.97;;;;;;;3.89;78.94;100701.84;5090204;28;20211;-78
2021/05/08 04:28:50;;;;;;;15.40;14.17;;;;;;;3.95;78.66;100709.66;5089570;28;20236;-78
2021/05/08 04:31:16;;;;;;;15.23;14.03;;;;;;;3.95;78.83;100709.66;5089963;28;20280;-79
2021/05/08 04:33:42;;;;;;;15.07;13.87;;;;;;;3.97;78.64;100707.97;5088766;28;20205;-79
2021/05/08 04:36:08;;;;;;;15.20;14.03;;;;;;;4.00;78.93;100714.03;5090263;28;21108;-78
2021/05/08 04:38:34;;;;;;;14.90;13.80;;;;;;;4.09;78.65;100717.59;5090209;28;20719;-79
2021/05/08 04:41:00;;;;;;;15.47;14.27;;;;;;;4.08;78.66;100717.56;5089613;28;20204;-79
2021/05/08 04:43:26;;;;;;;16.17;14.73;;;;;;;4.09;78.22;100721.88;5088861;28;20267;-79
2021/05/08 04:45:52;;;;;;;15.60;14.40;;;;;;;4.11;79.32;100712.44;5088455;28;20302;-79
2021/05/08 04:48:25;;;;;;;16.43;14.93;;;;;;;4.17;79.19;100717.69;5089596;28;20269;-79
2021/05/08 04:50:52;;;;;;;15.73;14.60;;;;;;;4.24;79.01;100719.50;5089794;28;20239;-79
2021/05/08 04:53:18;;;;;;;16.80;15.40;;;;;;;4.24;78.77;100718.59;5089427;28;20280;-78
2021/05/08 04:55:45;;;;;;;17.20;15.53;;;;;;;4.27;78.81;100718.66;5089715;28;20689;-80
2021/05/08 04:58:11;;;;;;;17.63;16.03;;;;;;;4.30;79.24;100710.91;5089042;28;20220;-79
2021/05/08 05:00:37;;;;;;;16.80;15.40;;;;;;;4.37;78.58;100712.72;5088771;28;20636;-78
2021/05/08 05:03:03;;;;;;;16.90;15.60;;;;;;;4.46;78.98;100715.44;5088488;28;20649;-79
2021/05/08 05:05:30;;;;;;;16.77;15.47;;;;;;;4.50;79.03;100717.19;5088938;28;20541;-78
2021/05/08 05:07:56;;;;;;;16.93;15.63;;;;;;;4.51;77.94;100724.06;5089793;28;20280;-79
2021/05/08 05:10:22;;;;;;;16.63;15.50;;;;;;;4.55;78.25;100715.50;5088974;28;20742;-79
2021/05/08 05:12:48;;;;;;;16.43;15.23;;;;;;;4.54;77.42;100723.25;5089188;28;20218;-79
2021/05/08 05:15:16;;;;;;;16.67;15.43;;;;;;;4.66;77.09;100727.66;5087926;28;20237;-79
2021/05/08 05:17:42;;;;;;;16.70;15.40;;;;;;;4.62;77.10;100715.56;5089221;28;20597;-79
2021/05/08 05:20:10;;;;;;;16.70;15.40;;;;;;;4.71;76.41;100726.00;5088909;28;20204;-79
2021/05/08 05:22:37;;;;;;;17.07;15.80;;;;;;;4.72;77.36;100727.75;5088976;28;20208;-78
2021/05/08 05:25:04;;;;;;;17.80;16.43;;;;;;;4.74;77.09;100726.91;5088777;28;20227;-79
2021/05/08 05:27:30;;;;;;;16.37;15.17;;;;;;;4.83;75.35;100733.00;5088852;28;20220;-79
2021/05/08 05:29:56;;;;;;;16.60;15.37;;;;;;;4.95;74.61;100733.09;5089398;28;20235;-79
2021/05/08 05:32:22;;;;;;;15.97;14.77;;;;;;;5.00;74.65;100730.59;5089348;28;21304;-79
2021/05/08 05:34:48;;;;;;;15.83;14.73;;;;;;;5.04;74.23;100730.63;5088148;28;20332;-78
2021/05/08 05:37:14;;;;;;;15.80;14.67;;;;;;;5.11;72.51;100731.53;5088742;28;20368;-79
2021/05/08 05:39:41;;;;;;;17.03;15.77;;;;;;;5.21;72.30;100729.88;5089008;28;20706;-80
2021/05/08 05:42:07;;;;;;;15.90;14.63;;;;;;;5.30;73.56;100732.53;5089045;28;20204;-80
2021/05/08 05:44:33;;;;;;;16.73;15.53;;;;;;;5.37;72.35;100731.72;5087547;28;20212;-79
2021/05/08 05:46:58;;;;;;;15.53;14.33;;;;;;;5.44;72.35;100724.88;5089364;28;20236;-79
2021/05/08 05:49:25;;;;;;;15.40;14.10;;;;;;;5.55;70.98;100733.59;5087741;28;20243;-78
2021/05/08 05:51:50;;;;;;;15.60;14.50;;;;;;;5.65;72.17;100735.38;5089005;28;20675;-79
2021/05/08 05:54:16;;;;;;;15.20;14.17;;;;;;;5.70;70.78;100730.19;5088490;28;20236;-79
2021/05/08 05:56:43;;;;;;;15.17;13.90;;;;;;;5.78;70.09;100731.97;5088114;28;20289;-80
2021/05/08 05:59:09;;;;;;;15.23;14.13;;;;;;;5.87;69.61;100733.75;5088734;28;20288;-79
2021/05/08 06:01:35;;;;;;;15.30;14.17;;;;;;;5.95;68.95;100742.47;5088884;28;20272;-79
2021/05/08 06:04:01;;;;;;;16.00;14.80;;;;;;;6.02;67.98;100745.94;5088203;28;20206;-79
2021/05/08 06:06:27;;;;;;;15.27;14.17;;;;;;;6.11;68.33;100745.13;5088058;28;20210;-79
2021/05/08 06:08:52;;;;;;;15.03;14.03;;;;;;;6.14;68.24;100751.19;5087722;28;20738;-79
2021/05/08 06:11:18;;;;;;;15.07;13.90;;;;;;;6.16;67.78;100743.41;5088416;28;20207;-80
2021/05/08 06:13:45;;;;;;;16.17;14.87;;;;;;;6.27;68.07;100740.88;5087034;28;20226;-79
2021/05/08 06:16:11;;;;;;;15.70;14.70;;;;;;;6.26;67.99;100739.97;5087879;28;20219;-79
2021/05/08 06:18:37;;;;;;;15.40;14.30;;;;;;;6.34;68.29;100727.94;5086739;28;20220;-79
2021/05/08 06:21:03;;;;;;;15.47;14.33;;;;;;;6.36;67.10;100739.19;5087580;28;20207;-79
2021/05/08 06:23:30;;;;;;;15.87;14.70;;;;;;;6.41;67.55;100739.19;5088025;28;20796;-80
2021/05/08 06:25:56;;;;;;;16.13;14.97;;;;;;;6.41;68.28;100740.91;5087512;28;20204;-80
2021/05/08 06:28:21;;;;;;;15.50;14.40;;;;;;;6.44;68.26;100740.91;5088234;28;20231;-79
2021/05/08 06:30:48;;;;;;;16.67;15.47;;;;;;;6.53;68.89;100740.94;5088294;28;20247;-80
2021/05/08 06:33:15;;;;;;;16.50;14.80;;;;;;;6.57;69.29;100743.53;5086742;28;20658;-79
2021/05/08 06:35:40;;;;;;;15.70;14.60;;;;;;;6.64;69.06;100746.13;5088275;28;20265;-79
2021/05/08 06:38:06;;;;;;;16.83;15.53;;;;;;;6.71;69.78;100746.16;5087908;28;20330;-80
2021/05/08 06:40:33;;;;;;;16.27;15.17;;;;;;;6.72;68.89;100745.31;5088149;28;20204;-80
2021/05/08 06:42:59;;;;;;;16.60;15.07;;;;;;;6.70;69.24;100753.94;5087994;28;20197;-80
2021/05/08 06:45:24;;;;;;;15.27;14.17;;;;;;;6.69;69.12;100741.84;5086728;28;20289;-80
2021/05/08 06:47:58;;;;;;;16.17;15.07;;;;;;;6.74;68.52;100742.72;5087241;28;20652;-80
2021/05/08 06:50:24;;;;;;;15.07;13.97;;;;;;;6.83;68.63;100747.06;5086562;28;20228;-79
2021/05/08 06:52:50;;;;;;;14.83;13.83;;;;;;;6.96;68.80;100741.03;5087105;28;20478;-79
2021/05/08 06:55:15;;;;;;;14.97;13.80;;;;;;;6.96;66.62;100741.03;5086480;28;20288;-80
2021/05/08 06:57:41;;;;;;;14.03;13.03;;;;;;;7.00;66.94;100744.47;5086188;28;20232;-79
2021/05/08 07:00:08;;;;;;;14.63;13.63;;;;;;;7.06;66.78;100741.91;5086344;28;20210;-79
2021/05/08 07:02:34;;;;;;;14.67;13.50;;;;;;;7.15;66.48;100734.97;5086345;28;20257;-80
2021/05/08 07:05:01;;;;;;;14.40;13.30;;;;;;;7.22;66.76;100730.63;5086375;28;20204;-79
2021/05/08 07:07:27;;;;;;;14.57;13.47;;;;;;;7.34;65.78;100741.00;5085670;28;20312;-79
2021/05/08 07:09:53;;;;;;;13.73;12.73;;;;;;;7.47;66.05;100740.97;5085477;28;20291;-79
2021/05/08 07:12:18;;;;;;;13.47;12.27;;;;;;;7.55;65.35;100736.63;5085111;28;20204;-78
2021/05/08 07:14:44;;;;;;;11.97;11.17;;;;;;;7.65;63.62;100738.38;5084682;28;20648;-79
2021/05/08 07:17:10;;;;;;;12.13;11.13;;;;;;;7.78;63.25;100747.00;5084285;28;20287;-77
2021/05/08 07:19:36;;;;;;;10.80;10.00;;;;;;;7.87;60.85;100738.28;5084800;28;20222;-76
2021/05/08 07:22:04;;;;;;;12.83;11.63;;;;;;;7.95;62.65;100739.16;5085657;28;20208;-79
2021/05/08 07:24:30;;;;;;;12.87;11.87;;;;;;;8.05;63.03;100733.06;5085073;28;20211;-78
2021/05/08 07:26:57;;;;;;;11.40;10.50;;;;;;;8.14;62.67;100739.94;5085076;28;20663;-78
2021/05/08 07:29:24;;;;;;;11.50;10.60;;;;;;;8.11;59.43;100735.63;5085323;28;20234;-77
2021/05/08 07:31:50;;;;;;;10.77;10.07;;;;;;;8.18;59.07;100733.84;5085937;28;20204;-77
2021/05/08 07:34:16;;;;;;;11.23;10.23;;;;;;;8.25;60.17;100726.91;5085572;28;20556;-78
2021/05/08 07:36:42;;;;;;;11.27;10.37;;;;;;;8.37;60.40;100729.44;5085283;28;20235;-77
2021/05/08 07:39:09;;;;;;;11.40;10.50;;;;;;;8.53;62.43;100720.69;5085091;28;20741;-77
2021/05/08 07:41:35;;;;;;;12.10;11.30;;;;;;;8.62;62.43;100724.13;5086825;28;20219;-78
2021/05/08 07:44:01;;;;;;;11.00;10.10;;;;;;;8.75;59.18;100728.38;5086573;28;20632;-78
2021/05/08 07:46:30;;;;;;;10.63;9.80;;;;;;;8.64;56.78;100719.75;5085886;28;20586;-77
2021/05/08 07:48:56;;;;;;;10.07;9.27;;;;;;;8.77;57.48;100713.63;5082816;28;20383;-78
2021/05/08 07:51:22;;;;;;;9.90;9.10;;;;;;;8.88;57.11;100708.31;5082568;28;20774;-76
2021/05/08 07:53:48;;;;;;;10.50;9.60;;;;;;;8.94;56.31;100710.91;5082964;28;20206;-76
2021/05/08 07:56:15;;;;;;;10.43;9.63;;;;;;;9.05;56.76;100703.84;5084020;28;20204;-77
2021/05/08 07:58:40;;;;;;;10.17;9.47;;;;;;;9.03;56.01;100700.38;5084606;28;20254;-79
2021/05/08 08:01:06;;;;;;;10.37;9.50;;;;;;;9.23;61.02;100704.56;5086433;28;20196;-78
2021/05/08 08:03:32;;;;;;;9.07;8.37;;;;;;;9.20;55.30;100697.66;5089334;28;20590;-81
2021/05/08 08:05:58;;;;;;;7.90;7.30;;;;;;;9.27;54.55;100695.84;5091783;28;20209;-81
2021/05/08 08:08:24;;;;;;;8.13;7.53;;;;;;;9.28;54.59;100698.44;5089918;28;20227;-81
2021/05/08 08:10:50;;;;;;;8.03;7.43;;;;;;;9.37;56.75;100694.88;5089283;28;20258;-78
2021/05/08 08:13:18;;;;;;;8.33;7.67;;;;;;;9.43;55.94;100696.56;5084726;28;21097;-81
2021/05/08 08:15:44;;;;;;;9.47;8.67;;;;;;;9.45;55.62;100698.25;5085566;28;20210;-81
2021/05/08 08:18:10;;;;;;;9.73;8.93;;;;;;;9.49;56.11;100702.59;5084651;28;20224;-81
2021/05/08 08:20:36;;;;;;;26.07;11.63;;;;;;;9.50;56.09;100706.03;5085279;28;20265;-81
2021/05/08 08:23:03;;;;;;;9.57;8.77;;;;;;;9.48;56.15;100706.06;5085094;28;20787;-81
2021/05/08 08:25:29;;;;;;;9.93;9.13;;;;;;;9.51;56.06;100711.25;5086508;28;20212;-81
2021/05/08 08:27:55;;;;;;;10.93;10.03;;;;;;;9.48;56.25;100705.19;5087686;28;20220;-82
2021/05/08 08:30:22;;;;;;;9.97;8.97;;;;;;;9.57;55.87;100712.03;5087067;28;21008;-81
2021/05/08 08:32:48;;;;;;;5.60;5.20;;;;;;;9.68;50.59;100707.59;5087647;28;20200;-82
2021/05/08 08:35:14;;;;;;;6.47;5.97;;;;;;;9.87;52.53;100708.22;5086143;28;20719;-82
2021/05/08 08:37:40;;;;;;;7.37;6.77;;;;;;;9.99;52.53;100721.16;5086375;28;20228;-82
2021/05/08 08:40:07;;;;;;;7.17;6.50;;;;;;;9.91;52.47;100705.59;5086978;28;20210;-83
2021/05/08 08:42:36;;;;;;;7.07;6.57;;;;;;;10.06;53.26;100703.66;5087426;28;20342;-82
2021/05/08 08:45:03;;;;;;;7.53;7.03;;;;;;;10.13;52.82;100700.13;5086657;28;20240;-81
2021/05/08 08:47:30;;;;;;;7.60;6.90;;;;;;;10.13;51.50;100700.97;5086190;28;20224;-80
2021/05/08 08:49:59;;;;;;;7.37;6.87;;;;;;;10.18;51.62;100700.03;5084430;28;20698;-81
2021/05/08 08:52:26;;;;;;;7.47;6.73;;;;;;;10.32;50.66;100692.91;5088137;28;20583;-81
2021/05/08 08:54:53;;;;;;;7.00;6.50;;;;;;;10.41;49.59;100691.94;5088997;28;20629;-81
2021/05/08 08:57:25;;;;;;;8.07;7.47;;;;;;;10.41;50.14;100689.34;5088962;28;20694;-82
2021/05/08 08:59:53;;;;;;;7.50;6.90;;;;;;;10.53;50.07;100678.72;5088447;28;20205;-81
2021/05/08 09:02:19;;;;;;;8.27;7.50;;;;;;;10.67;50.99;100671.53;5089427;28;20266;-82
2021/05/08 09:04:46;;;;;;;7.33;6.70;;;;;;;10.74;51.16;100682.72;5089097;28;20205;-82
2021/05/08 09:07:15;;;;;;;6.37;5.87;;;;;;;10.73;47.03;100674.03;5088461;28;20967;-81
2021/05/08 09:09:42;;;;;;;5.73;5.33;;;;;;;10.85;49.19;100686.03;5088454;28;20686;-82
2021/05/08 09:12:12;;;;;;;6.33;5.73;;;;;;;10.99;48.14;100672.75;5089141;28;20230;-82
2021/05/08 09:14:39;;;;;;;6.93;6.37;;;;;;;11.02;47.71;100677.03;5087877;28;20209;-82
2021/05/08 09:17:08;;;;;;;6.03;5.60;;;;;;;11.11;47.34;100664.69;5087813;28;20316;-82
2021/05/08 09:19:36;;;;;;;6.33;5.87;;;;;;;11.15;47.15;100664.66;5088046;28;20205;-81
2021/05/08 09:22:24;;;;;;;6.10;5.60;;;;;;;11.33;46.78;100662.56;5088839;28;20246;-81
2021/05/08 09:24:59;;;;;;;5.90;5.50;;;;;;;11.57;46.91;100662.97;5088684;28;20209;-82
2021/05/08 09:27:35;;;;;;;5.73;5.23;;;;;;;11.38;44.84;100667.72;5088517;28;20683;-82
2021/05/08 09:30:08;;;;;;;5.53;5.07;;;;;;;11.50;45.33;100662.25;5089289;28;20220;-82
2021/05/08 09:32:38;;;;;;;5.30;4.83;;;;;;;11.36;41.03;100655.53;5088528;28;20204;-82
2021/05/08 09:35:07;;;;;;;5.33;4.93;;;;;;;11.43;40.63;100652.78;5088571;28;20250;-81
2021/05/08 09:37:34;;;;;;;5.50;5.07;;;;;;;11.39;41.40;100650.28;5087690;28;20594;-80
2021/05/08 09:40:19;;;;;;;5.20;4.80;;;;;;;11.26;41.12;100639.19;5087098;28;20625;-82
2021/05/08 09:42:50;;;;;;;5.50;5.00;;;;;;;11.55;39.60;100643.84;5088757;28;20222;-79
2021/05/08 09:45:17;;;;;;;5.23;4.73;;;;;;;11.85;42.83;100636.28;5087836;28;20237;-80
2021/05/08 09:47:43;;;;;;;5.23;4.83;;;;;;;11.97;41.87;100630.84;5087413;28;20228;-80
2021/05/08 09:50:10;;;;;;;5.70;5.30;;;;;;;12.14;44.15;100630.44;5086754;28;20758;-80
2021/05/08 09:52:56;;;;;;;5.70;5.30;;;;;;;11.95;41.38;100621.28;5087724;28;20218;-79
2021/05/08 09:55:23;;;;;;;5.87;5.37;;;;;;;12.01;41.51;100616.78;5087360;28;21034;-80
2021/05/08 09:58:02;;;;;;;6.00;5.40;;;;;;;12.03;41.39;100621.97;5087867;28;20781;-79
2021/05/08 10:00:33;;;;;;;5.87;5.37;;;;;;;12.10;40.83;100610.47;5086723;28;20208;-81
2021/05/08 10:03:04;;;;;;;5.97;5.57;;;;;;;12.23;41.08;100604.09;5086681;28;20263;-79
2021/05/08 10:05:30;;;;;;;6.40;5.80;;;;;;;12.27;41.91;100600.50;5087604;28;20208;-81
2021/05/08 10:07:57;;;;;;;6.47;5.90;;;;;;;12.16;40.89;100593.78;5087293;28;20229;-80
2021/05/08 10:10:24;;;;;;;6.60;5.90;;;;;;;12.39;43.59;100601.97;5087399;28;20459;-80
2021/05/08 10:12:50;;;;;;;7.77;7.17;;;;;;;12.46;40.14;100602.66;5087162;28;20209;-79
2021/05/08 10:15:17;;;;;;;6.77;6.27;;;;;;;12.55;41.86;100597.22;5086533;28;20270;-82
2021/05/08 10:17:47;;;;;;;7.80;7.20;;;;;;;12.68;40.96;100598.59;5086984;28;20225;-79
2021/05/08 10:20:14;;;;;;;6.83;6.33;;;;;;;12.62;39.91;100590.91;5087196;28;20197;-81
2021/05/08 10:22:43;;;;;;;8.30;6.77;;;;;;;12.96;41.96;100583.94;5086219;28;20201;-81
2021/05/08 10:25:11;;;;;;;7.13;6.63;;;;;;;13.05;41.11;100581.09;5086404;28;20295;-80
2021/05/08 10:27:37;;;;;;;7.30;6.80;;;;;;;12.77;39.74;100573.97;5085544;28;20247;-78
2021/05/08 10:30:06;;;;;;;7.03;6.33;;;;;;;12.79;39.48;100577.41;5084969;28;20758;-81
2021/05/08 10:32:33;;;;;;;6.93;6.33;;;;;;;12.86;39.59;100576.34;5085088;28;20710;-80
2021/05/08 10:35:02;;;;;;;7.00;6.40;;;;;;;13.01;39.23;100572.44;5086060;28;20202;-81
2021/05/08 10:37:28;;;;;;;6.77;6.17;;;;;;;13.03;38.45;100568.03;5087432;28;20231;-80
2021/05/08 10:39:56;;;;;;;6.00;5.60;;;;;;;13.21;41.29;100566.66;5086469;28;20232;-79
2021/05/08 10:42:34;;;;;;;6.37;5.77;;;;;;;13.34;38.84;100564.59;5086941;28;20208;-80
2021/05/08 10:45:01;;;;;;;5.37;4.97;;;;;;;13.21;37.61;100558.81;5086240;28;20677;-80
2021/05/08 10:48:03;;;;;;;6.13;5.13;;;;;;;13.26;38.10;100559.53;5086718;28;20242;-80
2021/05/08 10:50:36;;;;;;;7.20;6.70;;;;;;;13.49;38.84;100547.56;5086047;28;20244;-80
2021/05/08 10:53:04;;;;;;;5.13;4.63;;;;;;;13.57;38.97;100539.47;5086372;28;20209;-81
2021/05/08 10:55:41;;;;;;;4.97;4.60;;;;;;;13.36;37.43;100549.69;5088039;28;20236;-82
2021/05/08 10:58:38;;;;;;;4.57;4.17;;;;;;;13.49;37.67;100535.28;5086067;28;20226;-81
2021/05/08 11:01:09;;;;;;;3.20;2.83;;;;;;;13.58;37.17;100535.94;5082670;28;20216;-79
2021/05/08 11:04:04;;;;;;;3.23;3.03;;;;;;;13.63;33.99;100534.03;5084212;28;20199;-79
2021/05/08 11:06:30;;;;;;;3.43;2.63;;;;;;;13.68;36.18;100527.75;5085656;28;20270;-81
2021/05/08 11:08:56;;;;;;;2.87;2.67;;;;;;;13.63;36.52;100516.53;5085394;28;20232;-80
2021/05/08 11:11:25;;;;;;;2.97;2.73;;;;;;;13.58;35.94;100533.34;5084969;28;20644;-81
2021/05/08 11:13:55;;;;;;;3.33;2.87;;;;;;;13.51;35.99;100532.63;5084185;28;20218;-81
2021/05/08 11:16:23;;;;;;;2.70;1.80;;;;;;;13.81;33.19;100533.47;5085384;28;20209;-80
2021/05/08 11:18:50;;;;;;;1.97;1.80;;;;;;;14.01;32.11;100521.50;5085695;28;20237;-81
2021/05/08 11:22:03;;;;;;;1.93;1.60;;;;;;;14.13;34.50;100520.25;5086064;28;20578;-83
2021/05/08 11:24:34;;;;;;;3.07;2.77;;;;;;;14.32;35.59;100524.00;5085564;28;20679;-82